Buffalo, MN

8:20 PM CDT on September 25, 2017 (GMT -0500)
Buffalo

Weather History for KCFE - November, 2013

Change the Weather History Date:

Sunday, November 17, 2013

  Actual Average (KMIC) Record (KMIC)
Temperature  
Mean Temperature 36 °F -  
Max Temperature 42 °F 39 °F 68 °F (2001)
Min Temperature 31 °F 25 °F 6 °F (2005)
Degree Days  
Heating Degree Days 28    
Moisture  
Dew Point 33 °F    
Average Humidity 82    
Maximum Humidity 94    
Minimum Humidity 72    
Precipitation  
Precipitation 0.01 in - - ()
Sea Level Pressure  
Sea Level Pressure 29.50 in    
Wind  
Wind Speed 10 mph (West)    
Max Wind Speed 25 mph    
Max Gust Speed 38 mph    
Visibility 8 miles    
Events      
Averages and records for this station are not official NWS values.
T = Trace of Precipitation, MM = Missing Value Source: NWS Daily Summary

Daily Weather History Graph

Daily Weather History Graph

Search for Another Location

Airport or City:

Trip Planner

Search our weather history database for the weather conditions in past years. The results will help you decide how hot, cold, wet, or windy it might be!

Date:

Astronomy

Nov. 17, 2013 Rise Set
Actual Time 7:16 AM CST 4:43 PM CST
Civil Twilight 6:44 AM CST 5:15 PM CST
Nautical Twilight 6:08 AM CST 5:51 PM CST
Astronomical Twilight 5:33 AM CST 6:26 PM CST
Moon 5:01 PM CST (11/17) 7:10 AM CST (11/17)
Length of Visible Light 10h 31m
Length of Day
9h 27m
Full, 100% of the Moon is Illuminated
Nov 17
Full
Nov 25
Last Quarter
Dec 2
New
Dec 9
First Quarter
Dec 17
Full

Hourly Weather History & Observations

Time (CST) Temp. Windchill Dew Point Humidity Pressure Visibility Wind Dir Wind Speed Gust Speed Precip Events Conditions
12:16 AM 41.5 °F 39.6 °F 39.4 °F 92% 29.31 in 5.0 mi SSW 3.5 mph - N/A   Clear
12:36 AM 41.5 °F 36.4 °F 39.4 °F 92% 29.31 in 5.0 mi South 8.1 mph - N/A   Clear
12:56 AM 41.5 °F 37.8 °F 39.0 °F 91% 29.30 in 7.0 mi SSW 5.8 mph - N/A   Clear
1:16 AM 41.2 °F 36.6 °F 38.5 °F 90% 29.30 in 7.0 mi SSW 6.9 mph - N/A   Clear
1:36 AM 40.3 °F 37.1 °F 37.4 °F 89% 29.30 in 7.0 mi SW 4.6 mph - N/A   Clear
1:56 AM 39.6 °F 37.4 °F 37.0 °F 91% 29.30 in 7.0 mi SSW 3.5 mph - N/A   Clear
2:16 AM 39.6 °F 37.4 °F 37.2 °F 91% 29.30 in 7.0 mi SSW 3.5 mph - N/A   Clear
2:36 AM 39.4 °F 37.2 °F 37.4 °F 93% 29.30 in 5.0 mi South 3.5 mph - N/A   Mostly Cloudy
2:56 AM 39.6 °F 35.4 °F 37.4 °F 92% 29.31 in 7.0 mi SSW 5.8 mph - N/A   Overcast
3:16 AM 40.1 °F 36.9 °F 37.8 °F 91% 29.31 in 5.0 mi SW 4.6 mph - 0.01 in   Overcast
3:36 AM 40.1 °F 36.9 °F 37.9 °F 92% 29.31 in 4.0 mi SW 4.6 mph - 0.01 in   Overcast
3:56 AM 40.3 °F 36.3 °F 38.5 °F 93% 29.32 in 2.0 mi SW 5.8 mph - 0.01 in   Overcast
4:15 AM 41.0 °F 39.0 °F 39.2 °F 93% 29.33 in 2.0 mi South 3.5 mph - N/A   Overcast
4:36 AM 41.0 °F 36.4 °F 39.2 °F 93% 29.35 in 2.5 mi SSW 6.9 mph - N/A   Overcast
4:56 AM 41.2 °F 38.2 °F 39.6 °F 94% 29.34 in 2.5 mi SSW 4.6 mph - N/A   Overcast
5:15 AM 41.0 °F 37.1 °F 39.2 °F 93% 29.33 in 1.8 mi SSW 5.8 mph - N/A   Overcast
5:36 AM 41.0 °F 38.0 °F 39.2 °F 93% 29.33 in 1.8 mi SSW 4.6 mph - N/A   Overcast
5:56 AM 41.0 °F 37.1 °F 39.2 °F 93% 29.35 in 2.0 mi SW 5.8 mph - N/A   Overcast
6:15 AM 41.2 °F 38.2 °F 39.6 °F 94% 29.34 in 4.0 mi West 4.6 mph - N/A   Overcast
6:36 AM 41.2 °F 33.7 °F 39.6 °F 94% 29.35 in 7.0 mi West 13.8 mph - N/A   Overcast
6:56 AM 41.2 °F 33.7 °F 38.7 °F 91% 29.35 in 10.0 mi West 13.8 mph - N/A   Overcast
7:15 AM 41.0 °F 33.5 °F 37.9 °F 89% 29.34 in 10.0 mi West 13.8 mph 19.6 mph N/A   Overcast
7:36 AM 40.8 °F 35.0 °F 37.2 °F 87% 29.34 in 10.0 mi West 9.2 mph - N/A   Overcast
7:56 AM 40.1 °F 34.1 °F 36.5 °F 87% 29.36 in 10.0 mi West 9.2 mph - N/A   Mostly Cloudy
8:15 AM 39.7 °F 33.7 °F 36.5 °F 88% 29.35 in 10.0 mi West 9.2 mph - N/A   Overcast
8:36 AM 39.6 °F 33.0 °F 36.1 °F 88% 29.37 in 10.0 mi West 10.4 mph 16.1 mph N/A   Mostly Cloudy
8:56 AM 39.7 °F 34.3 °F 36.0 °F 86% 29.38 in 10.0 mi West 8.1 mph - N/A   Mostly Cloudy
9:15 AM 40.1 °F 34.1 °F 35.6 °F 84% 29.39 in 10.0 mi WNW 9.2 mph 17.3 mph N/A   Overcast
9:36 AM 40.3 °F 33.9 °F 35.4 °F 83% 29.39 in 10.0 mi WNW 10.4 mph 18.4 mph N/A   Overcast
9:56 AM 40.8 °F 35.0 °F 35.6 °F 82% 29.40 in 10.0 mi WNW 9.2 mph 17.3 mph N/A   Overcast
10:15 AM 41.2 °F 34.5 °F 36.0 °F 82% 29.40 in 10.0 mi WNW 11.5 mph - N/A   Mostly Cloudy
10:36 AM 41.2 °F 34.1 °F 35.8 °F 81% 29.41 in 10.0 mi WNW 12.7 mph - N/A   Overcast
10:56 AM 42.1 °F 35.2 °F 36.3 °F 80% 29.42 in 10.0 mi WNW 12.7 mph 16.1 mph N/A   Overcast
11:15 AM 41.9 °F 35.0 °F 35.8 °F 79% 29.42 in 10.0 mi WNW 12.7 mph 16.1 mph N/A   Overcast
11:36 AM 42.3 °F 35.1 °F 35.8 °F 78% 29.43 in 10.0 mi WNW 13.8 mph 17.3 mph N/A   Overcast
11:56 AM 42.3 °F 34.1 °F 35.2 °F 76% 29.43 in 10.0 mi WNW 17.3 mph 24.2 mph N/A   Overcast
12:15 PM 42.8 °F 35.8 °F 35.2 °F 75% 29.43 in 10.0 mi West 13.8 mph 21.9 mph N/A   Overcast
12:36 PM 42.6 °F 35.6 °F 35.2 °F 75% 29.44 in 10.0 mi West 13.8 mph 18.4 mph N/A   Overcast
12:56 PM 41.9 °F 33.1 °F 34.0 °F 73% 29.45 in 10.0 mi West 19.6 mph 25.3 mph N/A   Overcast
1:15 PM 41.9 °F 33.7 °F 34.0 °F 73% 29.46 in 10.0 mi WNW 17.3 mph 24.2 mph N/A   Overcast
1:36 PM 41.9 °F 32.8 °F 34.0 °F 73% 29.47 in 10.0 mi West 20.7 mph 25.3 mph N/A   Overcast
1:56 PM 42.1 °F 33.9 °F 33.8 °F 72% 29.48 in 10.0 mi West 17.3 mph - N/A   Overcast
2:16 PM 41.7 °F 34.8 °F 34.3 °F 75% 29.49 in 10.0 mi West 12.7 mph 18.4 mph N/A   Overcast
2:36 PM 41.4 °F 33.3 °F 33.4 °F 73% 29.50 in 10.0 mi West 16.1 mph 23.0 mph N/A   Overcast
2:56 PM 41.0 °F 31.9 °F 33.1 °F 73% 29.51 in 10.0 mi WNW 19.6 mph 25.3 mph N/A   Overcast
3:16 PM 40.1 °F 30.5 °F 32.0 °F 73% 29.53 in 10.0 mi West 20.7 mph 28.8 mph N/A   Mostly Cloudy
3:36 PM 39.2 °F 29.0 °F 32.2 °F 76% 29.55 in 10.0 mi West 21.9 mph 29.9 mph N/A   Overcast
3:55 PM 37.8 °F 27.7 °F 32.0 °F 80% 29.56 in 10.0 mi West 19.6 mph 25.3 mph N/A   Overcast
4:16 PM 37.4 °F 27.2 °F 31.5 °F 79% 29.59 in 10.0 mi West 19.6 mph 25.3 mph N/A   Overcast
4:36 PM 37.4 °F 27.2 °F 30.7 °F 77% 29.60 in 10.0 mi West 19.6 mph 32.2 mph N/A   Overcast
4:55 PM 36.7 °F 28.0 °F 30.7 °F 79% 29.62 in 10.0 mi West 13.8 mph 29.9 mph N/A   Overcast
5:16 PM 35.2 °F 24.7 °F 29.8 °F 81% 29.63 in 10.0 mi West 18.4 mph 31.1 mph N/A   Overcast
5:36 PM 34.7 °F 25.5 °F 29.7 °F 82% 29.65 in 10.0 mi West 13.8 mph 26.5 mph N/A   Overcast
5:55 PM 33.8 °F 21.0 °F 27.9 °F 79% 29.67 in 10.0 mi West 25.3 mph 38.0 mph N/A   Overcast
6:16 PM 33.8 °F 21.6 °F 27.5 °F 78% 29.69 in 10.0 mi West 23.0 mph 38.0 mph N/A   Overcast
6:36 PM 33.8 °F 21.6 °F 28.4 °F 81% 29.70 in 10.0 mi West 23.0 mph 28.8 mph N/A   Overcast
6:55 PM 32.9 °F 22.4 °F 27.3 °F 80% 29.72 in 10.0 mi West 16.1 mph 24.2 mph N/A   Overcast
7:16 PM 32.5 °F 20.5 °F 26.4 °F 78% 29.73 in 10.0 mi West 20.7 mph 31.1 mph N/A   Overcast
7:36 PM 32.2 °F 21.1 °F 26.1 °F 78% 29.74 in 10.0 mi West 17.3 mph 27.6 mph N/A   Overcast
7:55 PM 32.2 °F 21.8 °F 25.7 °F 77% 29.74 in 10.0 mi West 15.0 mph 28.8 mph N/A   Overcast
8:16 PM 32.0 °F 22.1 °F 25.7 °F 78% 29.75 in 10.0 mi WNW 13.8 mph 28.8 mph N/A   Overcast
8:36 PM 32.0 °F 20.5 °F 25.2 °F 76% 29.76 in 10.0 mi WNW 18.4 mph 29.9 mph N/A   Overcast
8:55 PM 32.0 °F 22.5 °F 25.5 °F 77% 29.77 in 10.0 mi West 12.7 mph 24.2 mph N/A   Overcast
9:16 PM 32.0 °F 21.6 °F 25.3 °F 76% 29.78 in 10.0 mi West 15.0 mph 26.5 mph N/A   Overcast
9:36 PM 31.8 °F 21.4 °F 24.6 °F 75% 29.79 in 10.0 mi West 15.0 mph 24.2 mph N/A   Overcast
9:56 PM 31.8 °F 20.6 °F 24.4 °F 74% 29.79 in 10.0 mi West 17.3 mph 26.5 mph N/A   Overcast
10:16 PM 31.8 °F 22.3 °F 24.4 °F 74% 29.80 in 10.0 mi West 12.7 mph 31.1 mph N/A   Overcast
10:35 PM 31.6 °F 20.7 °F 24.6 °F 75% 29.80 in 10.0 mi West 16.1 mph 27.6 mph N/A   Overcast
10:56 PM 31.3 °F 19.9 °F 24.3 °F 75% 29.81 in 10.0 mi West 17.3 mph 23.0 mph N/A   Overcast
11:16 PM 31.1 °F 18.6 °F 23.4 °F 73% 29.83 in 10.0 mi West 20.7 mph 31.1 mph N/A   Overcast
11:35 PM 31.1 °F 20.5 °F 23.5 °F 74% 29.83 in 10.0 mi West 15.0 mph 24.2 mph N/A   Overcast
11:56 PM 31.1 °F 19.7 °F 23.7 °F 74% 29.84 in 10.0 mi West 17.3 mph 25.3 mph N/A   Overcast